sensor_id;sensor_type;location;lat;lon;timestamp;temperature;humidity
53926;DHT22;39836;52.754;6.866;2022-12-07T00:01:13;3.60;81.00
53926;DHT22;39836;52.754;6.866;2022-12-07T00:03:41;3.60;81.00
53926;DHT22;39836;52.754;6.866;2022-12-07T00:06:08;3.50;81.00
53926;DHT22;39836;52.754;6.866;2022-12-07T00:08:35;3.50;81.00
53926;DHT22;39836;52.754;6.866;2022-12-07T00:11:06;3.50;81.00
53926;DHT22;39836;52.754;6.866;2022-12-07T00:13:33;3.40;80.90
53926;DHT22;39836;52.754;6.866;2022-12-07T00:16:04;3.40;80.90
53926;DHT22;39836;52.754;6.866;2022-12-07T00:18:30;3.40;80.80
53926;DHT22;39836;52.754;6.866;2022-12-07T00:21:11;3.40;80.80
53926;DHT22;39836;52.754;6.866;2022-12-07T00:23:37;3.30;80.80
53926;DHT22;39836;52.754;6.866;2022-12-07T00:26:07;3.30;80.70
53926;DHT22;39836;52.754;6.866;2022-12-07T00:28:34;3.20;80.70
53926;DHT22;39836;52.754;6.866;2022-12-07T00:31:07;3.20;80.70
53926;DHT22;39836;52.754;6.866;2022-12-07T00:33:34;3.20;80.60
53926;DHT22;39836;52.754;6.866;2022-12-07T00:36:01;3.10;80.60
53926;DHT22;39836;52.754;6.866;2022-12-07T00:38:29;3.10;80.60
53926;DHT22;39836;52.754;6.866;2022-12-07T00:40:58;3.10;80.60
53926;DHT22;39836;52.754;6.866;2022-12-07T00:43:24;3.00;80.60
53926;DHT22;39836;52.754;6.866;2022-12-07T00:45:50;3.00;80.60
53926;DHT22;39836;52.754;6.866;2022-12-07T00:48:16;3.00;80.60
53926;DHT22;39836;52.754;6.866;2022-12-07T00:50:42;3.00;80.60
53926;DHT22;39836;52.754;6.866;2022-12-07T00:53:07;3.00;80.60
53926;DHT22;39836;52.754;6.866;2022-12-07T00:55:36;3.10;80.70
53926;DHT22;39836;52.754;6.866;2022-12-07T00:58:03;3.00;80.70
53926;DHT22;39836;52.754;6.866;2022-12-07T01:00:28;3.10;80.70
53926;DHT22;39836;52.754;6.866;2022-12-07T01:02:54;3.10;80.70
53926;DHT22;39836;52.754;6.866;2022-12-07T01:05:20;3.00;80.60
53926;DHT22;39836;52.754;6.866;2022-12-07T01:07:46;3.00;80.60
53926;DHT22;39836;52.754;6.866;2022-12-07T01:10:12;3.00;80.60
53926;DHT22;39836;52.754;6.866;2022-12-07T01:12:39;2.90;80.60
53926;DHT22;39836;52.754;6.866;2022-12-07T01:15:06;2.90;80.60
53926;DHT22;39836;52.754;6.866;2022-12-07T01:17:32;2.90;80.60
53926;DHT22;39836;52.754;6.866;2022-12-07T01:19:57;2.90;80.50
53926;DHT22;39836;52.754;6.866;2022-12-07T01:22:23;2.80;80.50
53926;DHT22;39836;52.754;6.866;2022-12-07T01:24:49;2.80;80.50
53926;DHT22;39836;52.754;6.866;2022-12-07T01:27:15;2.80;80.60
53926;DHT22;39836;52.754;6.866;2022-12-07T01:29:41;2.80;80.50
53926;DHT22;39836;52.754;6.866;2022-12-07T01:32:06;2.80;80.50
53926;DHT22;39836;52.754;6.866;2022-12-07T01:34:32;2.90;80.60
53926;DHT22;39836;52.754;6.866;2022-12-07T01:36:58;2.90;80.70
53926;DHT22;39836;52.754;6.866;2022-12-07T01:39:24;2.90;80.70
53926;DHT22;39836;52.754;6.866;2022-12-07T01:41:50;2.90;80.70
53926;DHT22;39836;52.754;6.866;2022-12-07T01:44:22;2.90;80.70
53926;DHT22;39836;52.754;6.866;2022-12-07T01:46:59;2.80;80.70
53926;DHT22;39836;52.754;6.866;2022-12-07T01:52:21;2.90;80.70
53926;DHT22;39836;52.754;6.866;2022-12-07T01:54:57;2.90;80.70
53926;DHT22;39836;52.754;6.866;2022-12-07T01:57:24;2.80;80.60
53926;DHT22;39836;52.754;6.866;2022-12-07T01:59:51;2.80;80.60
53926;DHT22;39836;52.754;6.866;2022-12-07T02:02:28;2.80;80.60
53926;DHT22;39836;52.754;6.866;2022-12-07T02:04:59;2.80;80.60
53926;DHT22;39836;52.754;6.866;2022-12-07T02:07:25;2.70;80.60
53926;DHT22;39836;52.754;6.866;2022-12-07T02:09:52;2.70;80.60
53926;DHT22;39836;52.754;6.866;2022-12-07T02:12:18;2.70;80.70
53926;DHT22;39836;52.754;6.866;2022-12-07T02:14:44;2.80;80.70
53926;DHT22;39836;52.754;6.866;2022-12-07T02:17:19;2.80;80.70
53926;DHT22;39836;52.754;6.866;2022-12-07T02:20:00;2.90;80.80
53926;DHT22;39836;52.754;6.866;2022-12-07T02:28:34;3.10;80.80
53926;DHT22;39836;52.754;6.866;2022-12-07T02:31:14;3.20;80.80
53926;DHT22;39836;52.754;6.866;2022-12-07T02:33:50;3.20;80.70
53926;DHT22;39836;52.754;6.866;2022-12-07T02:36:31;3.20;80.60
53926;DHT22;39836;52.754;6.866;2022-12-07T02:39:15;3.30;80.60
53926;DHT22;39836;52.754;6.866;2022-12-07T02:41:53;3.40;80.60
53926;DHT22;39836;52.754;6.866;2022-12-07T02:44:24;3.30;80.50
53926;DHT22;39836;52.754;6.866;2022-12-07T02:46:56;3.40;80.50
53926;DHT22;39836;52.754;6.866;2022-12-07T02:49:25;3.40;80.50
53926;DHT22;39836;52.754;6.866;2022-12-07T02:51:52;3.40;80.50
53926;DHT22;39836;52.754;6.866;2022-12-07T02:54:20;3.40;80.40
53926;DHT22;39836;52.754;6.866;2022-12-07T02:57:05;3.30;80.40
53926;DHT22;39836;52.754;6.866;2022-12-07T03:08:03;3.00;80.30
53926;DHT22;39836;52.754;6.866;2022-12-07T03:11:08;3.00;80.20
53926;DHT22;39836;52.754;6.866;2022-12-07T03:14:02;2.90;80.20
53926;DHT22;39836;52.754;6.866;2022-12-07T03:16:37;2.90;80.20
53926;DHT22;39836;52.754;6.866;2022-12-07T03:19:10;2.80;80.20
53926;DHT22;39836;52.754;6.866;2022-12-07T03:21:39;2.70;80.20
53926;DHT22;39836;52.754;6.866;2022-12-07T03:24:09;2.70;80.20
53926;DHT22;39836;52.754;6.866;2022-12-07T03:26:39;2.60;80.20
53926;DHT22;39836;52.754;6.866;2022-12-07T03:29:24;2.60;80.20
53926;DHT22;39836;52.754;6.866;2022-12-07T03:32:19;2.60;80.20
53926;DHT22;39836;52.754;6.866;2022-12-07T03:34:51;3.40;80.50
53926;DHT22;39836;52.754;6.866;2022-12-07T03:37:40;2.60;80.30
53926;DHT22;39836;52.754;6.866;2022-12-07T03:42:50;2.60;80.30
53926;DHT22;39836;52.754;6.866;2022-12-07T03:45:17;2.50;80.30
53926;DHT22;39836;52.754;6.866;2022-12-07T03:50:32;2.60;80.40
53926;DHT22;39836;52.754;6.866;2022-12-07T03:53:19;2.50;80.40
53926;DHT22;39836;52.754;6.866;2022-12-07T03:55:46;2.50;80.40
53926;DHT22;39836;52.754;6.866;2022-12-07T03:58:17;2.50;80.30
53926;DHT22;39836;52.754;6.866;2022-12-07T04:00:46;2.50;80.40
53926;DHT22;39836;52.754;6.866;2022-12-07T04:03:12;2.50;80.40
53926;DHT22;39836;52.754;6.866;2022-12-07T04:05:39;2.50;80.40
53926;DHT22;39836;52.754;6.866;2022-12-07T04:08:05;2.40;80.30
53926;DHT22;39836;52.754;6.866;2022-12-07T04:10:30;2.40;80.30
53926;DHT22;39836;52.754;6.866;2022-12-07T04:12:56;2.40;80.30
53926;DHT22;39836;52.754;6.866;2022-12-07T04:15:22;2.40;80.30
53926;DHT22;39836;52.754;6.866;2022-12-07T04:17:48;2.30;80.30
53926;DHT22;39836;52.754;6.866;2022-12-07T04:20:13;2.30;80.30
53926;DHT22;39836;52.754;6.866;2022-12-07T04:22:39;2.30;80.20
53926;DHT22;39836;52.754;6.866;2022-12-07T04:25:05;2.20;80.20
53926;DHT22;39836;52.754;6.866;2022-12-07T04:27:31;2.20;80.20
53926;DHT22;39836;52.754;6.866;2022-12-07T04:29:56;2.20;80.30
53926;DHT22;39836;52.754;6.866;2022-12-07T04:32:23;2.20;80.20
53926;DHT22;39836;52.754;6.866;2022-12-07T04:34:48;2.20;80.30
53926;DHT22;39836;52.754;6.866;2022-12-07T04:37:14;2.20;80.30
53926;DHT22;39836;52.754;6.866;2022-12-07T04:39:40;2.20;80.30
53926;DHT22;39836;52.754;6.866;2022-12-07T04:42:06;2.10;80.30
53926;DHT22;39836;52.754;6.866;2022-12-07T04:44:31;2.10;80.30
53926;DHT22;39836;52.754;6.866;2022-12-07T04:46:57;2.10;80.30
53926;DHT22;39836;52.754;6.866;2022-12-07T04:49:23;2.10;80.30
53926;DHT22;39836;52.754;6.866;2022-12-07T04:51:50;2.10;80.30
53926;DHT22;39836;52.754;6.866;2022-12-07T04:54:16;2.00;80.30
53926;DHT22;39836;52.754;6.866;2022-12-07T04:56:42;2.00;80.30
53926;DHT22;39836;52.754;6.866;2022-12-07T04:59:09;2.00;80.30
53926;DHT22;39836;52.754;6.866;2022-12-07T05:01:35;2.00;80.30
53926;DHT22;39836;52.754;6.866;2022-12-07T05:04:02;2.00;80.30
53926;DHT22;39836;52.754;6.866;2022-12-07T05:06:27;1.90;80.20
53926;DHT22;39836;52.754;6.866;2022-12-07T05:08:53;2.00;80.30
53926;DHT22;39836;52.754;6.866;2022-12-07T05:11:19;1.90;80.30
53926;DHT22;39836;52.754;6.866;2022-12-07T05:14:04;1.90;80.30
53926;DHT22;39836;52.754;6.866;2022-12-07T05:16:31;1.90;80.30
53926;DHT22;39836;52.754;6.866;2022-12-07T05:18:57;1.80;80.30
53926;DHT22;39836;52.754;6.866;2022-12-07T05:21:23;1.80;80.30
53926;DHT22;39836;52.754;6.866;2022-12-07T05:23:49;1.80;80.30
53926;DHT22;39836;52.754;6.866;2022-12-07T05:26:15;1.90;80.30
53926;DHT22;39836;52.754;6.866;2022-12-07T05:28:40;1.90;80.40
53926;DHT22;39836;52.754;6.866;2022-12-07T05:31:06;1.90;80.50
53926;DHT22;39836;52.754;6.866;2022-12-07T05:33:32;2.00;80.60
53926;DHT22;39836;52.754;6.866;2022-12-07T05:35:58;2.00;80.60
53926;DHT22;39836;52.754;6.866;2022-12-07T05:38:23;2.10;80.70
53926;DHT22;39836;52.754;6.866;2022-12-07T05:40:50;2.10;80.70
53926;DHT22;39836;52.754;6.866;2022-12-07T05:43:16;2.20;80.80
53926;DHT22;39836;52.754;6.866;2022-12-07T05:45:42;2.30;80.90
53926;DHT22;39836;52.754;6.866;2022-12-07T05:48:07;2.30;81.00
53926;DHT22;39836;52.754;6.866;2022-12-07T05:50:33;2.40;81.00
53926;DHT22;39836;52.754;6.866;2022-12-07T05:52:59;2.40;81.00
53926;DHT22;39836;52.754;6.866;2022-12-07T05:55:24;2.50;81.10
53926;DHT22;39836;52.754;6.866;2022-12-07T05:57:50;2.50;81.10
53926;DHT22;39836;52.754;6.866;2022-12-07T06:00:34;2.50;81.10
53926;DHT22;39836;52.754;6.866;2022-12-07T06:03:00;2.50;81.10
53926;DHT22;39836;52.754;6.866;2022-12-07T06:05:25;2.50;81.10
53926;DHT22;39836;52.754;6.866;2022-12-07T06:07:51;2.50;81.00
53926;DHT22;39836;52.754;6.866;2022-12-07T06:10:17;2.40;80.90
53926;DHT22;39836;52.754;6.866;2022-12-07T06:12:42;2.40;80.90
53926;DHT22;39836;52.754;6.866;2022-12-07T06:15:11;2.40;80.80
53926;DHT22;39836;52.754;6.866;2022-12-07T06:17:38;2.30;80.80
53926;DHT22;39836;52.754;6.866;2022-12-07T06:20:05;2.20;80.70
53926;DHT22;39836;52.754;6.866;2022-12-07T06:22:31;2.20;80.70
53926;DHT22;39836;52.754;6.866;2022-12-07T06:24:56;2.20;80.60
53926;DHT22;39836;52.754;6.866;2022-12-07T06:27:22;2.10;80.60
53926;DHT22;39836;52.754;6.866;2022-12-07T06:29:48;2.00;80.50
53926;DHT22;39836;52.754;6.866;2022-12-07T06:32:13;2.00;80.50
53926;DHT22;39836;52.754;6.866;2022-12-07T06:34:39;1.90;80.50
53926;DHT22;39836;52.754;6.866;2022-12-07T06:37:05;1.90;80.50
53926;DHT22;39836;52.754;6.866;2022-12-07T06:39:31;1.80;80.40
53926;DHT22;39836;52.754;6.866;2022-12-07T06:41:57;1.80;80.50
53926;DHT22;39836;52.754;6.866;2022-12-07T06:44:24;1.70;80.50
53926;DHT22;39836;52.754;6.866;2022-12-07T06:46:50;1.70;80.50
53926;DHT22;39836;52.754;6.866;2022-12-07T06:49:16;1.70;80.50
53926;DHT22;39836;52.754;6.866;2022-12-07T06:51:42;1.70;80.50
53926;DHT22;39836;52.754;6.866;2022-12-07T06:54:12;1.60;80.50
53926;DHT22;39836;52.754;6.866;2022-12-07T06:56:39;1.60;80.40
53926;DHT22;39836;52.754;6.866;2022-12-07T06:59:05;1.60;80.50
53926;DHT22;39836;52.754;6.866;2022-12-07T07:01:32;1.60;80.40
53926;DHT22;39836;52.754;6.866;2022-12-07T07:03:58;1.60;80.50
53926;DHT22;39836;52.754;6.866;2022-12-07T07:06:24;1.60;80.50
53926;DHT22;39836;52.754;6.866;2022-12-07T07:08:50;1.60;80.40
53926;DHT22;39836;52.754;6.866;2022-12-07T07:11:16;1.60;80.40
53926;DHT22;39836;52.754;6.866;2022-12-07T07:13:41;1.60;80.50
53926;DHT22;39836;52.754;6.866;2022-12-07T07:16:07;1.60;80.50
53926;DHT22;39836;52.754;6.866;2022-12-07T07:18:33;1.70;80.50
53926;DHT22;39836;52.754;6.866;2022-12-07T07:20:59;1.70;80.60
53926;DHT22;39836;52.754;6.866;2022-12-07T07:23:25;1.70;80.60
53926;DHT22;39836;52.754;6.866;2022-12-07T07:25:50;1.70;80.60
53926;DHT22;39836;52.754;6.866;2022-12-07T07:28:17;1.70;80.60
53926;DHT22;39836;52.754;6.866;2022-12-07T07:30:43;1.80;80.70
53926;DHT22;39836;52.754;6.866;2022-12-07T07:33:09;1.80;80.70
53926;DHT22;39836;52.754;6.866;2022-12-07T07:35:35;1.80;80.80
53926;DHT22;39836;52.754;6.866;2022-12-07T07:38:01;1.90;80.90
53926;DHT22;39836;52.754;6.866;2022-12-07T07:40:28;1.90;80.90
53926;DHT22;39836;52.754;6.866;2022-12-07T07:42:57;1.90;80.90
53926;DHT22;39836;52.754;6.866;2022-12-07T07:45:24;2.00;81.00
53926;DHT22;39836;52.754;6.866;2022-12-07T07:47:51;2.00;81.10
53926;DHT22;39836;52.754;6.866;2022-12-07T07:50:17;2.00;81.00
53926;DHT22;39836;52.754;6.866;2022-12-07T07:52:44;2.10;81.10
53926;DHT22;39836;52.754;6.866;2022-12-07T07:55:10;2.20;81.20
53926;DHT22;39836;52.754;6.866;2022-12-07T07:57:39;2.20;81.20
53926;DHT22;39836;52.754;6.866;2022-12-07T08:00:08;2.20;81.20
53926;DHT22;39836;52.754;6.866;2022-12-07T08:02:34;2.20;81.20
53926;DHT22;39836;52.754;6.866;2022-12-07T08:05:00;2.20;81.10
53926;DHT22;39836;52.754;6.866;2022-12-07T08:07:27;2.30;81.20
53926;DHT22;39836;52.754;6.866;2022-12-07T08:09:53;2.30;81.20
53926;DHT22;39836;52.754;6.866;2022-12-07T08:12:19;2.30;81.20
53926;DHT22;39836;52.754;6.866;2022-12-07T08:14:45;2.40;81.30
53926;DHT22;39836;52.754;6.866;2022-12-07T08:17:11;2.40;81.20
53926;DHT22;39836;52.754;6.866;2022-12-07T08:19:37;2.40;81.30
53926;DHT22;39836;52.754;6.866;2022-12-07T08:22:03;2.50;81.30
53926;DHT22;39836;52.754;6.866;2022-12-07T08:24:29;2.50;81.30
53926;DHT22;39836;52.754;6.866;2022-12-07T08:26:55;2.60;81.20
53926;DHT22;39836;52.754;6.866;2022-12-07T08:29:21;2.60;81.10
53926;DHT22;39836;52.754;6.866;2022-12-07T08:31:47;2.60;81.00
53926;DHT22;39836;52.754;6.866;2022-12-07T08:34:13;2.60;80.90
53926;DHT22;39836;52.754;6.866;2022-12-07T08:36:39;2.60;80.90
53926;DHT22;39836;52.754;6.866;2022-12-07T08:39:05;2.60;80.90
53926;DHT22;39836;52.754;6.866;2022-12-07T08:41:31;2.60;81.00
53926;DHT22;39836;52.754;6.866;2022-12-07T08:43:57;2.70;81.00
53926;DHT22;39836;52.754;6.866;2022-12-07T08:46:25;2.70;81.10
53926;DHT22;39836;52.754;6.866;2022-12-07T08:51:28;2.80;81.10
53926;DHT22;39836;52.754;6.866;2022-12-07T08:53:54;2.80;81.00
53926;DHT22;39836;52.754;6.866;2022-12-07T08:56:21;2.70;80.80
53926;DHT22;39836;52.754;6.866;2022-12-07T08:58:48;2.70;80.80
53926;DHT22;39836;52.754;6.866;2022-12-07T09:01:14;2.70;80.70
53926;DHT22;39836;52.754;6.866;2022-12-07T09:03:40;2.60;80.70
53926;DHT22;39836;52.754;6.866;2022-12-07T09:06:06;2.80;80.70
53926;DHT22;39836;52.754;6.866;2022-12-07T09:08:36;2.50;80.60
53926;DHT22;39836;52.754;6.866;2022-12-07T09:11:03;2.60;80.70
53926;DHT22;39836;52.754;6.866;2022-12-07T09:13:29;2.70;80.80
53926;DHT22;39836;52.754;6.866;2022-12-07T09:15:54;2.80;80.90
53926;DHT22;39836;52.754;6.866;2022-12-07T09:18:20;2.90;81.10
53926;DHT22;39836;52.754;6.866;2022-12-07T09:20:46;3.10;81.20
53926;DHT22;39836;52.754;6.866;2022-12-07T09:23:11;3.30;81.30
53926;DHT22;39836;52.754;6.866;2022-12-07T09:25:37;3.40;81.20
53926;DHT22;39836;52.754;6.866;2022-12-07T09:28:03;3.50;81.10
53926;DHT22;39836;52.754;6.866;2022-12-07T09:30:28;3.50;80.90
53926;DHT22;39836;52.754;6.866;2022-12-07T09:32:56;3.50;80.80
53926;DHT22;39836;52.754;6.866;2022-12-07T09:35:23;3.50;80.70
53926;DHT22;39836;52.754;6.866;2022-12-07T09:37:49;3.40;80.60
53926;DHT22;39836;52.754;6.866;2022-12-07T09:40:17;3.40;80.60
53926;DHT22;39836;52.754;6.866;2022-12-07T09:42:47;3.40;80.50
53926;DHT22;39836;52.754;6.866;2022-12-07T09:45:15;3.40;80.50
53926;DHT22;39836;52.754;6.866;2022-12-07T09:47:42;3.50;80.60
53926;DHT22;39836;52.754;6.866;2022-12-07T09:50:28;3.60;80.60
53926;DHT22;39836;52.754;6.866;2022-12-07T09:53:04;3.70;80.70
53926;DHT22;39836;52.754;6.866;2022-12-07T09:55:33;3.90;80.60
53926;DHT22;39836;52.754;6.866;2022-12-07T09:57:59;4.00;80.70
53926;DHT22;39836;52.754;6.866;2022-12-07T10:00:25;4.20;80.80
53926;DHT22;39836;52.754;6.866;2022-12-07T10:03:01;4.30;80.70
53926;DHT22;39836;52.754;6.866;2022-12-07T10:05:38;4.40;80.60
53926;DHT22;39836;52.754;6.866;2022-12-07T10:08:05;4.60;80.70
53926;DHT22;39836;52.754;6.866;2022-12-07T10:10:33;4.70;80.70
53926;DHT22;39836;52.754;6.866;2022-12-07T10:18:38;4.60;80.00
53926;DHT22;39836;52.754;6.866;2022-12-07T10:21:17;4.60;79.80
53926;DHT22;39836;52.754;6.866;2022-12-07T10:26:35;4.50;79.60
53926;DHT22;39836;52.754;6.866;2022-12-07T10:29:31;4.50;79.60
53926;DHT22;39836;52.754;6.866;2022-12-07T10:32:23;4.50;79.60
53926;DHT22;39836;52.754;6.866;2022-12-07T10:34:52;4.50;79.60
53926;DHT22;39836;52.754;6.866;2022-12-07T10:37:41;4.50;79.60
53926;DHT22;39836;52.754;6.866;2022-12-07T10:40:28;4.50;79.60
53926;DHT22;39836;52.754;6.866;2022-12-07T10:45:27;4.50;79.60
53926;DHT22;39836;52.754;6.866;2022-12-07T10:48:19;4.50;79.70
53926;DHT22;39836;52.754;6.866;2022-12-07T10:51:10;4.40;79.70
53926;DHT22;39836;52.754;6.866;2022-12-07T11:18:13;4.70;79.80
53926;DHT22;39836;52.754;6.866;2022-12-07T11:21:03;4.80;79.90
53926;DHT22;39836;52.754;6.866;2022-12-07T11:34:48;4.90;79.30
53926;DHT22;39836;52.754;6.866;2022-12-07T11:37:21;4.90;79.20
53926;DHT22;39836;52.754;6.866;2022-12-07T11:39:54;4.90;79.20
53926;DHT22;39836;52.754;6.866;2022-12-07T11:42:42;4.90;79.20
53926;DHT22;39836;52.754;6.866;2022-12-07T11:45:29;4.80;79.20
53926;DHT22;39836;52.754;6.866;2022-12-07T11:48:00;4.80;79.20
53926;DHT22;39836;52.754;6.866;2022-12-07T11:53:14;4.90;79.30
53926;DHT22;39836;52.754;6.866;2022-12-07T12:03:49;5.20;79.40
53926;DHT22;39836;52.754;6.866;2022-12-07T12:06:15;5.30;79.30
53926;DHT22;39836;52.754;6.866;2022-12-07T12:09:06;5.30;79.30
53926;DHT22;39836;52.754;6.866;2022-12-07T12:21:33;6.20;78.90
53926;DHT22;39836;52.754;6.866;2022-12-07T12:24:16;6.40;78.80
53926;DHT22;39836;52.754;6.866;2022-12-07T12:27:01;6.40;77.90
53926;DHT22;39836;52.754;6.866;2022-12-07T12:29:37;6.40;77.80
53926;DHT22;39836;52.754;6.866;2022-12-07T12:42:58;6.40;77.40
53926;DHT22;39836;52.754;6.866;2022-12-07T12:45:30;6.40;77.00
53926;DHT22;39836;52.754;6.866;2022-12-07T12:48:00;6.40;77.00
53926;DHT22;39836;52.754;6.866;2022-12-07T12:53:16;6.40;77.10
53926;DHT22;39836;52.754;6.866;2022-12-07T13:00:43;6.30;77.00
53926;DHT22;39836;52.754;6.866;2022-12-07T13:03:24;6.40;76.90
53926;DHT22;39836;52.754;6.866;2022-12-07T13:06:18;6.40;76.90
53926;DHT22;39836;52.754;6.866;2022-12-07T13:08:45;6.50;77.00
53926;DHT22;39836;52.754;6.866;2022-12-07T13:11:20;6.40;77.10
53926;DHT22;39836;52.754;6.866;2022-12-07T13:13:50;6.30;76.80
53926;DHT22;39836;52.754;6.866;2022-12-07T13:16:37;6.20;76.90
53926;DHT22;39836;52.754;6.866;2022-12-07T13:20:39;6.10;77.00
53926;DHT22;39836;52.754;6.866;2022-12-07T13:24:57;5.90;77.30
53926;DHT22;39836;52.754;6.866;2022-12-07T13:27:25;5.90;77.20
53926;DHT22;39836;52.754;6.866;2022-12-07T13:29:52;6.00;77.40
53926;DHT22;39836;52.754;6.866;2022-12-07T13:32:28;6.10;77.40
53926;DHT22;39836;52.754;6.866;2022-12-07T13:34:55;6.10;77.40
53926;DHT22;39836;52.754;6.866;2022-12-07T13:37:29;6.30;77.60
53926;DHT22;39836;52.754;6.866;2022-12-07T13:40:00;6.60;77.30
53926;DHT22;39836;52.754;6.866;2022-12-07T13:42:34;6.80;77.00
53926;DHT22;39836;52.754;6.866;2022-12-07T13:45:22;6.80;76.60
53926;DHT22;39836;52.754;6.866;2022-12-07T13:48:13;6.70;76.40
53926;DHT22;39836;52.754;6.866;2022-12-07T13:50:39;6.50;75.90
53926;DHT22;39836;52.754;6.866;2022-12-07T13:53:11;6.30;76.00
53926;DHT22;39836;52.754;6.866;2022-12-07T13:55:44;6.20;76.10
53926;DHT22;39836;52.754;6.866;2022-12-07T13:58:10;6.10;76.00
53926;DHT22;39836;52.754;6.866;2022-12-07T14:00:36;5.80;75.90
53926;DHT22;39836;52.754;6.866;2022-12-07T14:05:41;5.50;76.20
53926;DHT22;39836;52.754;6.866;2022-12-07T14:10:39;5.30;76.50
53926;DHT22;39836;52.754;6.866;2022-12-07T14:13:35;5.20;76.70
53926;DHT22;39836;52.754;6.866;2022-12-07T14:18:51;5.00;77.00
53926;DHT22;39836;52.754;6.866;2022-12-07T14:21:19;5.00;77.10
53926;DHT22;39836;52.754;6.866;2022-12-07T14:26:28;4.90;77.30
53926;DHT22;39836;52.754;6.866;2022-12-07T14:31:53;4.80;77.50
53926;DHT22;39836;52.754;6.866;2022-12-07T14:34:20;4.80;77.50
53926;DHT22;39836;52.754;6.866;2022-12-07T14:36:46;4.70;77.50
53926;DHT22;39836;52.754;6.866;2022-12-07T14:39:12;4.70;77.60
53926;DHT22;39836;52.754;6.866;2022-12-07T14:41:37;4.70;77.70
53926;DHT22;39836;52.754;6.866;2022-12-07T14:44:20;4.60;77.80
53926;DHT22;39836;52.754;6.866;2022-12-07T14:46:47;4.60;77.80
53926;DHT22;39836;52.754;6.866;2022-12-07T14:49:13;4.60;77.90
53926;DHT22;39836;52.754;6.866;2022-12-07T14:51:39;4.60;77.90
53926;DHT22;39836;52.754;6.866;2022-12-07T14:54:15;4.50;77.90
53926;DHT22;39836;52.754;6.866;2022-12-07T14:56:42;4.50;78.00
53926;DHT22;39836;52.754;6.866;2022-12-07T14:59:10;4.40;78.00
53926;DHT22;39836;52.754;6.866;2022-12-07T15:01:36;4.40;78.10
53926;DHT22;39836;52.754;6.866;2022-12-07T15:04:01;4.40;78.10
53926;DHT22;39836;52.754;6.866;2022-12-07T15:06:27;4.30;78.10
53926;DHT22;39836;52.754;6.866;2022-12-07T15:08:52;4.30;78.20
53926;DHT22;39836;52.754;6.866;2022-12-07T15:11:18;4.20;78.20
53926;DHT22;39836;52.754;6.866;2022-12-07T15:13:44;4.10;78.30
53926;DHT22;39836;52.754;6.866;2022-12-07T15:16:28;4.10;78.30
53926;DHT22;39836;52.754;6.866;2022-12-07T15:18:54;4.00;78.40
53926;DHT22;39836;52.754;6.866;2022-12-07T15:21:20;4.00;78.50
53926;DHT22;39836;52.754;6.866;2022-12-07T15:23:49;4.00;78.60
53926;DHT22;39836;52.754;6.866;2022-12-07T15:26:15;4.00;78.70
53926;DHT22;39836;52.754;6.866;2022-12-07T15:28:41;4.00;78.70
53926;DHT22;39836;52.754;6.866;2022-12-07T15:31:17;4.00;78.80
53926;DHT22;39836;52.754;6.866;2022-12-07T15:33:43;4.00;78.90
53926;DHT22;39836;52.754;6.866;2022-12-07T15:36:20;3.90;78.80
53926;DHT22;39836;52.754;6.866;2022-12-07T15:38:47;4.00;78.80
53926;DHT22;39836;52.754;6.866;2022-12-07T15:41:13;3.90;78.80
53926;DHT22;39836;52.754;6.866;2022-12-07T15:43:38;3.90;78.70
53926;DHT22;39836;52.754;6.866;2022-12-07T15:46:23;4.00;78.80
53926;DHT22;39836;52.754;6.866;2022-12-07T15:48:48;4.00;78.80
53926;DHT22;39836;52.754;6.866;2022-12-07T15:51:14;4.00;78.80
53926;DHT22;39836;52.754;6.866;2022-12-07T15:53:40;4.10;78.90
53926;DHT22;39836;52.754;6.866;2022-12-07T15:56:06;4.00;78.80
53926;DHT22;39836;52.754;6.866;2022-12-07T15:58:32;4.00;78.80
53926;DHT22;39836;52.754;6.866;2022-12-07T16:00:58;4.10;78.90
53926;DHT22;39836;52.754;6.866;2022-12-07T16:03:24;4.10;78.90
53926;DHT22;39836;52.754;6.866;2022-12-07T16:05:50;4.10;78.90
53926;DHT22;39836;52.754;6.866;2022-12-07T16:08:16;4.00;78.90
53926;DHT22;39836;52.754;6.866;2022-12-07T16:10:42;4.00;78.90
53926;DHT22;39836;52.754;6.866;2022-12-07T16:13:09;4.00;78.90
53926;DHT22;39836;52.754;6.866;2022-12-07T16:15:42;4.00;78.90
53926;DHT22;39836;52.754;6.866;2022-12-07T16:18:08;3.90;78.90
53926;DHT22;39836;52.754;6.866;2022-12-07T16:20:34;3.90;79.00
53926;DHT22;39836;52.754;6.866;2022-12-07T16:22:59;3.90;79.10
53926;DHT22;39836;52.754;6.866;2022-12-07T16:25:25;3.80;79.10
53926;DHT22;39836;52.754;6.866;2022-12-07T16:27:52;3.80;79.10
53926;DHT22;39836;52.754;6.866;2022-12-07T16:30:17;3.80;79.10
53926;DHT22;39836;52.754;6.866;2022-12-07T16:32:43;3.70;79.10
53926;DHT22;39836;52.754;6.866;2022-12-07T16:35:10;3.70;79.00
53926;DHT22;39836;52.754;6.866;2022-12-07T16:37:36;3.70;79.20
53926;DHT22;39836;52.754;6.866;2022-12-07T16:40:02;3.70;79.10
53926;DHT22;39836;52.754;6.866;2022-12-07T16:42:32;3.70;79.10
53926;DHT22;39836;52.754;6.866;2022-12-07T16:44:58;3.70;79.10
53926;DHT22;39836;52.754;6.866;2022-12-07T16:47:24;3.70;79.10
53926;DHT22;39836;52.754;6.866;2022-12-07T16:49:50;3.70;79.10
53926;DHT22;39836;52.754;6.866;2022-12-07T16:52:20;3.70;79.10
53926;DHT22;39836;52.754;6.866;2022-12-07T16:54:48;3.60;79.10
53926;DHT22;39836;52.754;6.866;2022-12-07T16:57:15;3.70;79.00
53926;DHT22;39836;52.754;6.866;2022-12-07T16:59:40;3.70;79.00
53926;DHT22;39836;52.754;6.866;2022-12-07T17:02:08;3.60;78.90
53926;DHT22;39836;52.754;6.866;2022-12-07T17:04:33;3.70;78.80
53926;DHT22;39836;52.754;6.866;2022-12-07T17:07:00;3.70;78.70
53926;DHT22;39836;52.754;6.866;2022-12-07T17:09:25;3.70;78.60
53926;DHT22;39836;52.754;6.866;2022-12-07T17:11:51;3.80;78.60
53926;DHT22;39836;52.754;6.866;2022-12-07T17:14:17;3.70;78.50
53926;DHT22;39836;52.754;6.866;2022-12-07T17:17:01;3.70;78.50
53926;DHT22;39836;52.754;6.866;2022-12-07T17:19:27;3.70;78.50
53926;DHT22;39836;52.754;6.866;2022-12-07T17:21:53;3.70;78.60
53926;DHT22;39836;52.754;6.866;2022-12-07T17:24:18;3.70;78.60
53926;DHT22;39836;52.754;6.866;2022-12-07T17:26:45;3.80;78.80
53926;DHT22;39836;52.754;6.866;2022-12-07T17:29:13;3.60;78.90
53926;DHT22;39836;52.754;6.866;2022-12-07T17:31:39;3.50;78.90
53926;DHT22;39836;52.754;6.866;2022-12-07T17:34:10;3.50;79.00
53926;DHT22;39836;52.754;6.866;2022-12-07T17:36:36;3.40;79.10
53926;DHT22;39836;52.754;6.866;2022-12-07T17:39:10;3.40;79.10
53926;DHT22;39836;52.754;6.866;2022-12-07T17:41:37;3.40;79.10
53926;DHT22;39836;52.754;6.866;2022-12-07T17:44:22;3.30;79.10
53926;DHT22;39836;52.754;6.866;2022-12-07T17:46:50;3.30;79.00
53926;DHT22;39836;52.754;6.866;2022-12-07T17:49:20;3.30;79.00
53926;DHT22;39836;52.754;6.866;2022-12-07T17:51:46;3.20;79.10
53926;DHT22;39836;52.754;6.866;2022-12-07T17:54:30;3.20;79.00
53926;DHT22;39836;52.754;6.866;2022-12-07T17:56:56;3.20;79.00
53926;DHT22;39836;52.754;6.866;2022-12-07T17:59:23;3.10;79.10
53926;DHT22;39836;52.754;6.866;2022-12-07T18:01:49;3.10;79.00
53926;DHT22;39836;52.754;6.866;2022-12-07T18:04:15;3.10;79.00
53926;DHT22;39836;52.754;6.866;2022-12-07T18:06:41;3.10;79.10